Time;durP1;ratioP1;P1;durP2;ratioP2;P2;SDS_P1;SDS_P2;PMS_P1;PMS_P2;Temp;Humidity;BMP_temperature;BMP_pressure;BME280_temperature;BME280_humidity;BME280_pressure;Samples;Min_cycle;Max_cycle;Signal;HPM_P1;HPM_P2
2023/01/13 00:00:09;;;;;;;16.90;9.95;;;26.00;99.90;;;;;;5043132;28;20039;-71
2023/01/13 00:02:35;;;;;;;16.83;9.95;;;26.10;99.90;;;;;;5034427;28;20034;-71
2023/01/13 00:05:02;;;;;;;22.95;18.75;;;26.20;99.90;;;;;;5033297;28;20017;-70
2023/01/13 00:07:28;;;;;;;25.30;13.50;;;26.10;99.90;;;;;;5033276;28;20461;-72
2023/01/13 00:09:55;;;;;;;15.18;10.35;;;26.10;99.90;;;;;;5033392;28;20117;-72
2023/01/13 00:12:21;;;;;;;14.38;9.35;;;26.10;99.90;;;;;;5031898;28;20425;-73
2023/01/13 00:14:48;;;;;;;13.77;9.23;;;26.10;99.90;;;;;;5052444;22;20053;-71
2023/01/13 00:17:14;;;;;;;36.55;21.02;;;26.10;99.90;;;;;;5033294;28;20056;-71
2023/01/13 00:19:41;;;;;;;21.38;12.98;;;26.30;99.90;;;;;;5032603;28;20025;-72
2023/01/13 00:22:08;;;;;;;21.73;11.98;;;26.30;99.90;;;;;;5033271;28;20029;-70
2023/01/13 00:24:34;;;;;;;16.70;11.18;;;26.30;99.90;;;;;;5033150;28;20477;-71
2023/01/13 00:27:00;;;;;;;70.68;43.33;;;26.40;99.90;;;;;;5033050;28;20434;-73
2023/01/13 00:29:27;;;;;;;52.33;36.97;;;26.30;99.90;;;;;;5033168;28;20029;-72
2023/01/13 00:31:54;;;;;;;303.83;238.95;;;26.40;99.90;;;;;;5033191;28;20101;-71
2023/01/13 00:34:21;;;;;;;75.32;51.28;;;26.50;99.90;;;;;;5032852;28;20030;-72
2023/01/13 00:36:47;;;;;;;144.05;107.03;;;26.60;99.90;;;;;;5034994;28;20017;-71
2023/01/13 00:39:14;;;;;;;40.35;26.98;;;26.70;99.90;;;;;;5036587;28;20409;-71
2023/01/13 00:44:27;;;;;;;23.35;14.82;;;26.80;99.90;;;;;;5036624;28;20025;-72
2023/01/13 00:46:53;;;;;;;15.50;9.25;;;26.80;99.90;;;;;;5031056;28;20101;-72
2023/01/13 00:49:21;;;;;;;17.25;10.10;;;26.70;99.90;;;;;;5026717;28;20022;-72
2023/01/13 00:51:47;;;;;;;14.80;9.75;;;26.70;99.90;;;;;;5016760;28;20030;-72
2023/01/13 00:54:14;;;;;;;17.30;10.55;;;26.70;99.90;;;;;;5017073;28;20022;-71
2023/01/13 00:56:40;;;;;;;16.15;11.43;;;26.70;99.90;;;;;;5016597;28;20034;-73
2023/01/13 00:59:10;;;;;;;14.90;11.00;;;26.80;99.90;;;;;;5016428;28;20022;-73
2023/01/13 01:01:37;;;;;;;15.68;8.75;;;26.90;99.90;;;;;;5018981;28;20033;-73
2023/01/13 01:04:04;;;;;;;16.35;7.38;;;26.90;99.90;;;;;;5025308;28;20048;-72
2023/01/13 01:06:30;;;;;;;13.95;7.95;;;26.80;99.90;;;;;;5016426;28;20030;-72
2023/01/13 01:08:57;;;;;;;18.02;13.25;;;26.80;99.90;;;;;;5016471;28;20022;-71
2023/01/13 01:11:27;;;;;;;14.13;7.45;;;26.90;99.90;;;;;;5016301;28;20050;-71
2023/01/13 01:13:55;;;;;;;12.38;8.35;;;26.90;99.90;;;;;;5016408;28;20035;-71
2023/01/13 01:16:24;;;;;;;13.30;8.13;;;27.00;99.90;;;;;;5016086;28;20096;-70
2023/01/13 01:18:52;;;;;;;15.20;7.75;;;27.00;99.90;;;;;;5016214;28;20081;-71
2023/01/13 01:21:21;;;;;;;17.10;7.97;;;27.00;99.90;;;;;;5016149;28;20021;-71
2023/01/13 01:23:47;;;;;;;132.77;20.02;;;;;;;;;;5015945;28;20018;-68
2023/01/13 01:26:18;;;;;;;10.90;6.30;;;27.20;99.90;;;;;;5016149;28;20518;-71
2023/01/13 01:28:45;;;;;;;20.10;12.55;;;27.20;99.90;;;;;;5016041;28;20498;-71
2023/01/13 01:31:19;;;;;;;22.67;11.95;;;27.30;99.90;;;;;;5015776;28;20025;-70
2023/01/13 01:33:46;;;;;;;22.10;15.55;;;27.40;99.90;;;;;;5015999;28;20030;-70
2023/01/13 01:36:14;;;;;;;10.13;7.15;;;27.50;99.90;;;;;;5015742;28;20030;-71
2023/01/13 01:38:41;;;;;;;16.60;6.32;;;27.50;99.90;;;;;;5015629;28;20038;-70
2023/01/13 01:41:13;;;;;;;9.00;6.32;;;27.60;99.90;;;;;;5015734;28;20030;-69
2023/01/13 01:44:01;;;;;;;12.13;5.63;;;27.60;99.90;;;;;;5015978;28;20026;-68
2023/01/13 01:46:32;;;;;;;57.35;36.30;;;27.60;99.90;;;;;;5015652;28;20018;-68
2023/01/13 01:49:20;;;;;;;36.55;24.83;;;27.60;99.90;;;;;;5016684;28;20021;-66
2023/01/13 01:51:50;;;;;;;58.20;37.25;;;27.60;99.90;;;;;;5035109;28;20021;-67
2023/01/13 01:54:25;;;;;;;15.13;11.13;;;27.60;99.90;;;;;;5035410;28;20025;-67
2023/01/13 01:56:52;;;;;;;13.55;9.40;;;27.70;99.90;;;;;;5035388;28;20112;-67
2023/01/13 01:59:19;;;;;;;11.23;7.85;;;27.70;99.90;;;;;;5028576;28;20029;-68
2023/01/13 02:01:46;;;;;;;15.48;7.00;;;27.70;99.90;;;;;;5015296;28;20105;-68
2023/01/13 02:04:19;;;;;;;16.25;6.35;;;27.80;99.90;;;;;;5015410;28;20080;-68
2023/01/13 02:06:46;;;;;;;10.23;6.32;;;27.80;99.90;;;;;;5015316;28;20026;-68
2023/01/13 02:09:14;;;;;;;10.90;6.68;;;27.80;99.90;;;;;;5015089;28;20530;-68
2023/01/13 02:14:29;;;;;;;20.35;8.05;;;27.90;99.90;;;;;;5014809;28;20029;-66
2023/01/13 02:17:35;;;;;;;119.07;81.80;;;27.90;99.90;;;;;;5014988;28;20655;-68
2023/01/13 02:20:06;;;;;;;70.70;51.58;;;28.00;99.90;;;;;;4950580;29;20424;-68
2023/01/13 02:23:02;;;;;;;30.48;19.45;;;28.10;99.90;;;;;;4954619;29;20094;-66
2023/01/13 02:25:38;;;;;;;11.40;8.65;;;28.10;99.90;;;;;;4952075;29;20396;-69
2023/01/13 02:28:14;;;;;;;13.65;8.18;;;28.20;99.90;;;;;;4954329;29;20037;-69
2023/01/13 02:33:55;;;;;;;25.75;13.07;;;28.30;99.90;;;;;;4916102;29;20036;-69
2023/01/13 02:36:25;;;;;;;21.13;10.93;;;28.40;99.90;;;;;;4916112;29;20036;-69
2023/01/13 02:38:56;;;;;;;14.85;7.72;;;28.50;99.90;;;;;;4916084;29;20171;-69
2023/01/13 02:44:51;;;;;;;11.98;7.22;;;28.60;99.90;;;;;;4915993;29;20090;-68
2023/01/13 02:47:25;;;;;;;10.45;6.75;;;28.60;99.90;;;;;;4915192;29;20044;-67
2023/01/13 02:49:58;;;;;;;34.08;25.23;;;28.60;99.90;;;;;;4915810;29;20047;-67
2023/01/13 02:52:45;;;;;;;19.20;15.10;;;28.60;99.90;;;;;;4915678;29;20111;-67
2023/01/13 02:55:21;;;;;;;59.97;48.25;;;28.70;99.90;;;;;;4841021;29;20049;-67
2023/01/13 02:57:49;;;;;;;66.15;52.17;;;28.70;99.90;;;;;;4870128;29;20591;-67
2023/01/13 03:00:16;;;;;;;23.70;18.63;;;28.70;99.90;;;;;;4877858;29;20512;-67
2023/01/13 03:02:42;;;;;;;15.57;9.38;;;28.70;99.90;;;;;;4878040;29;20064;-66
2023/01/13 03:05:14;;;;;;;11.63;8.85;;;28.80;99.90;;;;;;4878106;29;20060;-66
2023/01/13 03:07:48;;;;;;;122.93;83.87;;;28.80;99.90;;;;;;4878121;29;20414;-66
2023/01/13 03:10:16;;;;;;;65.88;47.33;;;29.00;99.90;;;;;;4877883;29;20037;-66
2023/01/13 03:13:06;;;;;;;48.83;37.92;;;29.00;99.90;;;;;;4877895;29;20029;-66
2023/01/13 03:15:43;;;;;;;126.28;94.05;;;29.10;99.90;;;;;;4877868;29;20085;-66
2023/01/13 03:18:32;;;;;;;64.65;51.40;;;29.20;99.90;;;;;;4878128;29;20110;-67
2023/01/13 03:21:06;;;;;;;30.13;21.48;;;29.30;99.90;;;;;;4878042;29;20045;-67
2023/01/13 03:23:45;;;;;;;24.77;16.08;;;29.30;99.90;;;;;;4877783;29;20029;-67
2023/01/13 03:26:25;;;;;;;15.85;10.00;;;29.30;99.90;;;;;;4927987;29;20696;-67
2023/01/13 03:28:58;;;;;;;17.15;9.02;;;29.30;99.90;;;;;;4953354;29;20031;-67
2023/01/13 03:31:30;;;;;;;18.15;9.82;;;29.30;99.90;;;;;;4953266;29;20070;-67
2023/01/13 03:34:06;;;;;;;10.60;8.18;;;29.30;99.90;;;;;;4953389;29;20031;-67
2023/01/13 03:36:35;;;;;;;29.58;22.75;;;29.30;99.90;;;;;;5000445;28;20037;-67
2023/01/13 03:39:11;;;;;;;16.80;12.20;;;29.40;99.90;;;;;;5031405;28;20099;-67
2023/01/13 03:41:46;;;;;;;14.80;11.02;;;29.50;99.90;;;;;;5033514;28;20045;-66
2023/01/13 03:44:22;;;;;;;37.95;26.95;;;29.50;99.90;;;;;;5020403;28;20394;-66
2023/01/13 03:47:01;;;;;;;16.35;10.05;;;29.50;99.90;;;;;;5033262;28;20032;-66
2023/01/13 03:49:41;;;;;;;13.50;8.57;;;29.50;99.90;;;;;;5033253;28;20070;-66
2023/01/13 03:52:12;;;;;;;13.43;8.75;;;29.50;99.90;;;;;;5020336;28;20028;-67
2023/01/13 03:54:46;;;;;;;10.82;8.35;;;29.40;99.90;;;;;;5013420;28;20026;-67
2023/01/13 03:57:17;;;;;;;9.52;7.82;;;29.40;99.90;;;;;;5013631;28;20467;-66
2023/01/13 03:59:48;;;;;;;10.52;8.13;;;29.40;99.90;;;;;;5013192;28;20038;-66
2023/01/13 04:02:23;;;;;;;9.82;8.40;;;29.50;99.90;;;;;;5013516;28;20049;-66
2023/01/13 04:04:56;;;;;;;10.60;8.13;;;29.60;99.90;;;;;;5019776;28;20022;-66
2023/01/13 04:07:23;;;;;;;12.40;9.30;;;29.60;99.90;;;;;;5033341;28;20075;-66
2023/01/13 04:09:57;;;;;;;12.60;8.52;;;29.70;99.90;;;;;;5033194;28;20029;-66
2023/01/13 04:15:23;;;;;;;10.68;8.10;;;29.80;99.90;;;;;;5036701;28;20054;-68
2023/01/13 04:17:50;;;;;;;13.05;7.65;;;29.90;99.90;;;;;;5022651;28;20033;-69
2023/01/13 04:20:17;;;;;;;12.15;9.88;;;29.80;99.90;;;;;;5016972;28;20025;-70
2023/01/13 04:22:43;;;;;;;12.45;8.55;;;29.80;99.90;;;;;;5016937;28;20018;-70
2023/01/13 04:25:10;;;;;;;12.23;8.43;;;29.70;99.90;;;;;;5017126;28;20050;-70
2023/01/13 04:27:37;;;;;;;11.15;9.52;;;29.80;99.90;;;;;;5018045;28;20026;-68
2023/01/13 04:30:04;;;;;;;15.07;10.07;;;29.90;99.90;;;;;;5022719;28;20033;-68
2023/01/13 04:32:31;;;;;;;13.05;10.05;;;29.90;99.90;;;;;;5020753;28;20300;-68
2023/01/13 04:34:57;;;;;;;13.15;9.60;;;29.90;99.90;;;;;;5025637;28;20088;-71
2023/01/13 04:37:24;;;;;;;14.07;10.30;;;30.00;99.90;;;;;;5026334;28;20069;-69
2023/01/13 04:39:50;;;;;;;12.50;9.43;;;30.00;99.90;;;;;;5027222;28;20029;-68
2023/01/13 04:42:17;;;;;;;13.95;10.27;;;30.10;99.90;;;;;;5025203;28;20021;-71
2023/01/13 04:44:43;;;;;;;13.10;10.35;;;30.20;99.90;;;;;;5026210;28;20022;-70
2023/01/13 04:47:10;;;;;;;17.30;10.73;;;30.20;99.90;;;;;;5026762;28;20029;-69
2023/01/13 04:49:36;;;;;;;13.43;9.82;;;30.20;99.90;;;;;;5025118;28;20479;-69
2023/01/13 04:52:05;;;;;;;14.30;9.57;;;30.20;99.90;;;;;;5026446;28;20025;-70
2023/01/13 04:54:32;;;;;;;11.90;9.82;;;30.20;99.90;;;;;;5027010;28;20040;-70
2023/01/13 04:56:59;;;;;;;12.40;9.23;;;30.20;99.90;;;;;;5025363;28;20018;-70
2023/01/13 04:59:25;;;;;;;13.18;10.38;;;30.30;99.90;;;;;;5026185;28;20037;-69
2023/01/13 05:01:52;;;;;;;12.70;8.77;;;30.30;99.90;;;;;;5027289;28;20026;-68
2023/01/13 05:04:18;;;;;;;12.60;9.07;;;30.40;99.90;;;;;;5025249;28;20483;-70
2023/01/13 05:06:45;;;;;;;12.80;9.30;;;30.50;99.90;;;;;;5026014;28;20109;-71
2023/01/13 05:09:12;;;;;;;14.23;9.95;;;30.50;99.90;;;;;;5026933;28;20084;-70
2023/01/13 05:17:20;;;;;;;20.70;16.33;;;30.70;99.90;;;;;;5026700;28;20038;-70
2023/01/13 05:19:46;;;;;;;16.08;14.10;;;30.80;99.90;;;;;;5019426;28;20026;-71
2023/01/13 05:27:46;;;;;;;14.43;11.13;;;31.00;99.90;;;;;;5025685;28;20502;-71
2023/01/13 05:30:13;;;;;;;13.82;12.23;;;31.00;99.90;;;;;;5024222;28;20438;-69
2023/01/13 05:32:40;;;;;;;16.13;13.55;;;31.00;99.90;;;;;;5026152;28;20099;-71
2023/01/13 05:35:07;;;;;;;13.82;11.55;;;31.10;99.90;;;;;;5025735;28;20021;-71
2023/01/13 05:37:33;;;;;;;12.88;11.60;;;31.20;99.90;;;;;;5023847;28;20467;-70
2023/01/13 05:45:21;;;;;;;10.52;9.43;;;31.40;99.90;;;;;;5024617;28;20046;-67
2023/01/13 05:47:48;;;;;;;15.10;9.65;;;31.40;99.90;;;;;;5024770;28;20013;-69
2023/01/13 05:50:15;;;;;;;10.18;8.38;;;31.40;99.90;;;;;;5026436;28;20022;-69
2023/01/13 05:52:42;;;;;;;10.43;8.60;;;31.40;99.90;;;;;;5035355;28;20057;-66
2023/01/13 05:55:10;;;;;;;10.48;8.75;;;31.40;99.90;;;;;;5035417;28;20048;-67
2023/01/13 05:57:36;;;;;;;11.88;8.82;;;31.50;99.90;;;;;;5022437;28;20029;-69
2023/01/13 06:00:04;;;;;;;10.52;8.32;;;31.40;99.90;;;;;;5025015;28;20036;-67
2023/01/13 06:02:30;;;;;;;13.05;8.48;;;31.40;99.90;;;;;;5024033;28;20088;-68
2023/01/13 06:04:57;;;;;;;10.40;9.30;;;31.40;99.90;;;;;;5022401;28;20026;-68
2023/01/13 06:07:23;;;;;;;11.57;8.73;;;31.40;99.90;;;;;;5025097;28;20032;-65
2023/01/13 06:09:50;;;;;;;10.90;9.48;;;31.40;99.90;;;;;;5022892;28;20021;-66
2023/01/13 06:12:16;;;;;;;11.65;10.45;;;31.50;99.90;;;;;;5023570;28;20021;-68
2023/01/13 06:14:43;;;;;;;9.63;7.93;;;31.60;99.90;;;;;;5024751;28;20032;-67
2023/01/13 06:17:13;;;;;;;10.73;7.57;;;31.70;99.90;;;;;;5023497;28;20099;-67
2023/01/13 06:19:40;;;;;;;10.18;8.25;;;31.70;99.90;;;;;;5028613;28;20064;-68
2023/01/13 06:22:09;;;;;;;11.00;9.30;;;31.70;99.90;;;;;;5034602;28;20152;-68
2023/01/13 06:24:36;;;;;;;12.57;9.40;;;31.70;99.90;;;;;;5029494;28;20067;-68
2023/01/13 06:27:04;;;;;;;11.18;9.45;;;31.70;99.90;;;;;;5023626;28;20018;-67
2023/01/13 06:29:30;;;;;;;11.43;9.57;;;31.70;99.90;;;;;;5014584;28;20395;-67
2023/01/13 06:31:57;;;;;;;13.38;10.80;;;31.80;99.90;;;;;;5019732;28;20032;-68
2023/01/13 06:34:24;;;;;;;17.98;11.57;;;31.90;99.90;;;;;;5023104;28;20022;-66
2023/01/13 06:36:53;;;;;;;13.25;11.90;;;31.90;99.90;;;;;;5022545;28;20573;-68
2023/01/13 06:39:23;;;;;;;14.85;13.35;;;31.90;99.90;;;;;;5023308;28;20101;-68
2023/01/13 06:44:39;;;;;;;16.08;12.85;;;32.00;99.90;;;;;;5022854;28;20050;-64
2023/01/13 06:47:06;;;;;;;14.93;12.98;;;32.00;99.90;;;;;;5022478;28;20040;-66
2023/01/13 06:49:33;;;;;;;18.00;16.02;;;32.00;99.90;;;;;;5024457;28;20017;-67
2023/01/13 06:51:59;;;;;;;19.70;15.48;;;32.00;99.90;;;;;;5019725;28;20092;-64
2023/01/13 06:54:26;;;;;;;13.45;11.98;;;32.10;99.90;;;;;;5025792;28;20048;-65
2023/01/13 06:56:52;;;;;;;14.05;12.38;;;32.10;99.90;;;;;;5025970;28;20072;-66
2023/01/13 06:59:19;;;;;;;15.85;12.48;;;32.10;99.90;;;;;;5023981;28;20048;-66
2023/01/13 07:01:45;;;;;;;56.10;46.28;;;32.10;99.90;;;;;;5021976;28;20387;-67
2023/01/13 07:04:12;;;;;;;64.65;53.70;;;32.10;99.90;;;;;;5023335;28;20437;-67
2023/01/13 07:06:39;;;;;;;23.55;21.02;;;32.20;99.90;;;;;;5024087;28;20026;-66
2023/01/13 07:09:05;;;;;;;18.75;16.63;;;32.30;99.90;;;;;;5022051;28;20018;-66
2023/01/13 07:11:31;;;;;;;17.83;14.80;;;32.30;99.90;;;;;;5023469;28;20048;-68
2023/01/13 07:16:46;;;;;;;18.00;13.00;;;32.30;99.90;;;;;;5013852;28;20050;-68
2023/01/13 07:19:12;;;;;;;15.65;11.63;;;32.40;99.90;;;;;;5013710;28;20117;-69
2023/01/13 07:21:39;;;;;;;18.80;10.93;;;32.40;99.90;;;;;;5013693;28;20056;-67
2023/01/13 07:24:06;;;;;;;12.82;10.20;;;32.40;99.90;;;;;;5013555;28;20029;-67
2023/01/13 07:26:32;;;;;;;12.77;10.40;;;32.50;99.90;;;;;;5013694;28;20014;-69
2023/01/13 07:28:59;;;;;;;14.02;11.18;;;32.50;99.90;;;;;;5013810;28;20080;-66
2023/01/13 07:31:26;;;;;;;14.90;12.88;;;32.60;99.90;;;;;;5013492;28;20514;-70
2023/01/13 07:33:52;;;;;;;108.78;82.78;;;32.60;99.90;;;;;;5013494;28;20076;-68
2023/01/13 07:36:19;;;;;;;53.85;39.55;;;32.60;99.90;;;;;;5013519;28;20402;-68
2023/01/13 07:38:45;;;;;;;19.60;16.30;;;32.70;99.90;;;;;;5020309;28;20026;-67
2023/01/13 07:44:03;;;;;;;14.23;10.50;;;32.70;99.90;;;;;;5021487;28;20058;-66
2023/01/13 07:46:31;;;;;;;13.82;11.93;;;32.60;99.90;;;;;;5021233;28;20021;-67
2023/01/13 07:48:57;;;;;;;13.13;11.18;;;32.70;99.90;;;;;;5021273;28;20018;-66
2023/01/13 07:51:24;;;;;;;12.77;10.10;;;32.70;99.90;;;;;;5019649;28;20459;-68
2023/01/13 07:53:50;;;;;;;14.82;11.32;;;32.70;99.90;;;;;;5013460;28;20108;-69
2023/01/13 07:56:18;;;;;;;14.63;11.85;;;32.70;99.90;;;;;;5018354;28;20160;-68
2023/01/13 07:58:49;;;;;;;16.88;12.60;;;32.80;99.90;;;;;;5018932;28;20026;-66
2023/01/13 08:01:16;;;;;;;14.45;12.90;;;32.80;99.90;;;;;;5013426;28;20029;-68
2023/01/13 08:03:44;;;;;;;16.60;13.18;;;32.90;99.90;;;;;;5013967;28;20364;-67
2023/01/13 08:06:11;;;;;;;15.77;12.60;;;32.90;99.90;;;;;;5013946;28;20018;-69
2023/01/13 08:08:38;;;;;;;13.60;12.18;;;32.90;99.90;;;;;;5013890;28;20038;-69
2023/01/13 08:11:06;;;;;;;18.27;14.60;;;33.00;99.90;;;;;;5014030;28;20033;-67
2023/01/13 08:13:33;;;;;;;14.90;11.23;;;33.00;99.90;;;;;;5014051;28;20056;-68
2023/01/13 08:16:05;;;;;;;15.15;11.73;;;33.00;99.90;;;;;;5013743;28;20057;-68
2023/01/13 08:18:33;;;;;;;13.20;11.13;;;32.90;99.80;;;;;;5013942;28;20085;-67
2023/01/13 08:21:03;;;;;;;10.95;9.85;;;32.90;99.90;;;;;;5002359;28;20064;-67
2023/01/13 08:23:29;;;;;;;13.32;10.63;;;32.90;99.90;;;;;;5021342;28;20124;-67
2023/01/13 08:26:00;;;;;;;13.63;11.10;;;32.90;99.90;;;;;;5024362;28;20025;-65
2023/01/13 08:28:27;;;;;;;10.83;9.47;;;32.90;99.90;;;;;;5032504;28;20025;-66
2023/01/13 08:30:54;;;;;;;12.05;10.10;;;32.90;99.90;;;;;;5024675;28;20271;-66
2023/01/13 08:33:20;;;;;;;117.30;80.13;;;32.90;99.90;;;;;;5021748;28;20022;-66
2023/01/13 08:35:47;;;;;;;27.70;20.65;;;32.90;99.90;;;;;;5021263;28;20049;-67
2023/01/13 08:38:14;;;;;;;51.45;37.70;;;32.90;99.90;;;;;;5022539;28;20026;-67
2023/01/13 08:40:40;;;;;;;19.33;14.55;;;32.80;99.90;;;;;;5022360;28;20029;-67
2023/01/13 08:43:07;;;;;;;13.38;10.60;;;32.90;99.90;;;;;;5020688;28;20063;-67
2023/01/13 08:45:34;;;;;;;10.45;9.35;;;32.90;99.90;;;;;;5022346;28;20097;-66
2023/01/13 08:48:01;;;;;;;9.98;8.50;;;32.90;99.90;;;;;;5022276;28;20034;-66
2023/01/13 08:50:28;;;;;;;11.73;7.97;;;32.90;99.90;;;;;;5020775;28;20502;-67
2023/01/13 08:52:55;;;;;;;10.00;8.48;;;32.90;99.90;;;;;;5022138;28;20018;-67
2023/01/13 08:55:21;;;;;;;11.00;8.40;;;32.90;99.90;;;;;;5022234;28;20022;-68
2023/01/13 08:57:48;;;;;;;12.32;8.25;;;32.90;99.90;;;;;;5022325;28;20025;-66
2023/01/13 09:00:15;;;;;;;10.27;8.00;;;32.90;99.90;;;;;;5024103;28;20048;-66
2023/01/13 09:02:42;;;;;;;10.52;8.07;;;32.90;99.90;;;;;;5023340;28;20013;-66
2023/01/13 09:05:10;;;;;;;10.43;8.10;;;32.90;99.90;;;;;;5026064;28;20076;-66
2023/01/13 09:07:37;;;;;;;11.32;8.05;;;32.90;99.90;;;;;;5024774;28;20026;-66
2023/01/13 09:10:06;;;;;;;11.93;8.30;;;32.90;99.90;;;;;;5023422;28;20036;-68
2023/01/13 09:15:20;;;;;;;9.98;7.55;;;32.90;99.90;;;;;;5024449;28;20454;-67
2023/01/13 09:17:47;;;;;;;18.20;9.35;;;32.90;99.90;;;;;;5022682;28;20450;-66
2023/01/13 09:20:14;;;;;;;130.82;98.72;;;32.90;99.90;;;;;;5025515;28;20030;-67
2023/01/13 09:22:40;;;;;;;144.93;101.72;;;32.90;99.90;;;;;;5024426;28;20104;-67
2023/01/13 09:25:07;;;;;;;47.72;34.95;;;32.90;99.90;;;;;;5023636;28;20401;-68
2023/01/13 09:27:34;;;;;;;103.07;87.25;;;32.80;99.90;;;;;;5029978;28;20021;-67
2023/01/13 09:30:00;;;;;;;78.07;59.22;;;32.80;99.90;;;;;;5035709;28;20125;-67
2023/01/13 09:32:27;;;;;;;16.38;12.60;;;32.80;99.90;;;;;;5029131;28;20088;-68
2023/01/13 09:35:03;;;;;;;13.15;10.13;;;32.70;99.90;;;;;;5021669;28;20022;-68
2023/01/13 09:37:36;;;;;;;16.25;12.15;;;32.70;99.90;;;;;;5015625;28;20025;-67
2023/01/13 09:40:12;;;;;;;17.80;14.18;;;32.60;99.90;;;;;;5015554;28;20030;-68
2023/01/13 09:45:31;;;;;;;16.13;11.15;;;32.60;99.90;;;;;;5015413;28;20030;-68
2023/01/13 09:48:00;;;;;;;23.02;13.70;;;32.60;99.90;;;;;;5015387;28;20050;-69
2023/01/13 09:50:33;;;;;;;22.40;15.57;;;32.50;99.90;;;;;;5015485;28;20510;-68
2023/01/13 09:53:00;;;;;;;17.80;14.00;;;32.50;99.90;;;;;;5015477;28;20105;-68
2023/01/13 09:55:33;;;;;;;20.23;14.63;;;32.50;99.90;;;;;;5015269;28;20021;-68
2023/01/13 09:58:06;;;;;;;18.55;14.27;;;32.50;99.90;;;;;;5015676;28;20492;-68
2023/01/13 10:00:43;;;;;;;17.33;12.70;;;32.50;99.90;;;;;;5015082;28;20053;-68
2023/01/13 10:03:21;;;;;;;18.08;13.30;;;32.40;99.90;;;;;;5015291;28;20434;-68
2023/01/13 10:05:55;;;;;;;19.58;14.75;;;32.40;99.90;;;;;;5015112;28;20037;-68
2023/01/13 10:08:28;;;;;;;18.80;14.02;;;32.40;99.90;;;;;;5013559;28;20029;-69
2023/01/13 10:10:58;;;;;;;18.13;13.40;;;32.30;99.90;;;;;;5014818;28;20061;-70
2023/01/13 10:13:27;;;;;;;23.80;15.57;;;32.40;99.90;;;;;;5015065;28;20037;-67
2023/01/13 10:15:55;;;;;;;24.17;16.65;;;32.30;99.90;;;;;;5014909;28;20050;-68
2023/01/13 10:18:28;;;;;;;39.72;26.77;;;32.30;99.90;;;;;;5013473;28;20126;-67
2023/01/13 10:21:18;;;;;;;26.15;18.83;;;32.30;99.90;;;;;;5014785;28;20025;-68
2023/01/13 10:23:45;;;;;;;42.00;35.80;;;32.20;99.90;;;;;;5014094;28;20387;-67
2023/01/13 10:26:36;;;;;;;40.63;31.80;;;32.20;99.90;;;;;;5012813;28;20034;-67
2023/01/13 10:29:15;;;;;;;49.50;38.07;;;32.10;99.90;;;;;;5012826;28;20560;-67
2023/01/13 10:31:42;;;;;;;175.35;130.88;;;32.00;99.90;;;;;;5012757;28;20101;-68
2023/01/13 10:34:08;;;;;;;62.38;46.55;;;32.00;99.90;;;;;;5012749;28;20048;-68
2023/01/13 10:36:35;;;;;;;29.05;21.98;;;32.00;99.90;;;;;;5012653;28;20472;-68
2023/01/13 10:39:14;;;;;;;27.30;19.33;;;32.00;99.90;;;;;;5012674;28;20084;-68
2023/01/13 10:41:40;;;;;;;31.13;21.25;;;32.00;99.90;;;;;;5014487;28;20109;-69
2023/01/13 10:44:18;;;;;;;256.73;137.52;;;31.90;99.90;;;;;;5014420;28;20014;-69
2023/01/13 10:47:16;;;;;;;109.50;58.40;;;31.90;99.90;;;;;;5014469;28;20459;-69
2023/01/13 10:49:57;;;;;;;43.30;28.58;;;31.90;99.90;;;;;;5014331;28;20451;-69
2023/01/13 10:52:27;;;;;;;124.35;73.75;;;31.80;99.90;;;;;;5014167;28;20034;-69
2023/01/13 10:54:54;;;;;;;506.55;310.92;;;31.80;99.90;;;;;;5014477;28;20030;-68
2023/01/13 10:57:24;;;;;;;186.30;99.65;;;31.70;99.90;;;;;;5014245;28;20052;-68
2023/01/13 10:59:51;;;;;;;55.35;34.95;;;31.70;99.90;;;;;;5014211;28;20501;-68
2023/01/13 11:02:30;;;;;;;58.80;37.30;;;31.70;99.90;;;;;;5014272;28;20065;-68
2023/01/13 11:05:01;;;;;;;40.85;24.20;;;31.70;99.90;;;;;;5014057;28;20108;-67
2023/01/13 11:07:31;;;;;;;103.40;65.47;;;31.70;99.90;;;;;;5013990;28;20068;-68
2023/01/13 11:10:18;;;;;;;52.90;31.25;;;31.60;99.90;;;;;;5013942;28;20029;-69
2023/01/13 11:12:56;;;;;;;44.92;32.55;;;31.60;99.90;;;;;;5011498;28;20038;-68
2023/01/13 11:15:35;;;;;;;51.50;36.25;;;31.50;99.90;;;;;;5013737;28;20110;-68
2023/01/13 11:18:24;;;;;;;55.85;40.58;;;31.60;99.90;;;;;;5013919;28;20026;-68
2023/01/13 11:20:52;;;;;;;69.07;50.78;;;31.60;99.90;;;;;;4927904;29;20543;-68
2023/01/13 11:23:26;;;;;;;65.70;46.58;;;31.50;99.90;;;;;;4934239;29;20028;-68
2023/01/13 11:26:02;;;;;;;170.38;122.25;;;31.50;99.90;;;;;;4934026;29;20092;-69
2023/01/13 11:29:00;;;;;;;72.97;55.13;;;31.40;99.90;;;;;;4934291;29;20426;-69
2023/01/13 11:31:26;;;;;;;55.13;43.75;;;31.40;99.90;;;;;;4924929;29;20043;-69
2023/01/13 11:33:53;;;;;;;74.43;52.00;;;31.30;99.90;;;;;;4922758;29;20469;-68
2023/01/13 11:36:24;;;;;;;78.57;62.83;;;31.30;99.90;;;;;;4933950;29;20533;-67
2023/01/13 11:38:52;;;;;;;42.25;30.77;;;31.20;99.90;;;;;;4934014;29;20040;-67
2023/01/13 11:41:20;;;;;;;40.47;28.40;;;31.20;99.90;;;;;;4934122;29;20035;-69
2023/01/13 11:44:15;;;;;;;58.40;47.33;;;31.20;99.90;;;;;;4930759;29;20046;-68
2023/01/13 11:46:42;;;;;;;34.38;24.95;;;31.20;99.90;;;;;;4865965;29;20048;-68
2023/01/13 11:49:22;;;;;;;62.83;34.08;;;31.10;99.90;;;;;;4877352;29;20037;-68
2023/01/13 11:51:59;;;;;;;29.45;20.08;;;31.00;99.90;;;;;;4925324;29;20035;-68
2023/01/13 11:54:40;;;;;;;26.33;18.83;;;31.00;99.90;;;;;;4952998;29;20038;-69
2023/01/13 11:57:37;;;;;;;35.97;24.48;;;30.90;99.90;;;;;;4953155;29;20031;-68
2023/01/13 12:00:12;;;;;;;28.92;21.17;;;30.80;99.90;;;;;;4952980;29;20035;-69
2023/01/13 12:02:41;;;;;;;28.45;20.65;;;30.80;99.90;;;;;;4952954;29;20131;-67
2023/01/13 12:05:34;;;;;;;28.73;21.05;;;30.80;99.90;;;;;;4953000;29;20370;-69
2023/01/13 12:08:27;;;;;;;27.23;20.23;;;30.80;99.90;;;;;;4952870;29;20123;-68
2023/01/13 12:11:02;;;;;;;26.20;20.27;;;30.70;99.90;;;;;;4914932;29;20486;-69
2023/01/13 12:13:40;;;;;;;32.08;21.38;;;30.70;99.90;;;;;;4915211;29;20048;-70
2023/01/13 12:16:22;;;;;;;25.98;19.35;;;30.70;99.90;;;;;;4914657;29;20060;-70
2023/01/13 12:18:48;;;;;;;;;;;30.70;99.90;;;;;;4915213;29;20044;-69
2023/01/13 12:21:24;;;;;;;26.23;18.42;;;30.60;99.90;;;;;;4914794;29;19914;-69
2023/01/13 12:23:57;;;;;;;31.70;19.80;;;30.60;99.90;;;;;;4914724;29;20048;-68
2023/01/13 12:26:24;;;;;;;28.20;19.10;;;30.50;99.90;;;;;;4914772;29;20040;-70
2023/01/13 12:29:00;;;;;;;26.48;19.08;;;30.40;99.90;;;;;;4914710;29;20114;-69
2023/01/13 12:31:27;;;;;;;29.23;20.13;;;30.40;99.90;;;;;;4914585;29;20059;-70
2023/01/13 12:34:30;;;;;;;34.67;21.27;;;30.40;99.90;;;;;;4918045;29;20044;-70
2023/01/13 12:36:57;;;;;;;36.03;24.13;;;30.40;99.90;;;;;;4918512;29;20498;-70
2023/01/13 12:39:24;;;;;;;125.50;93.47;;;30.30;99.90;;;;;;4918015;29;20069;-70
2023/01/13 12:45:04;;;;;;;77.20;55.88;;;30.30;99.90;;;;;;4975456;28;20027;-70
2023/01/13 12:47:37;;;;;;;38.78;27.40;;;30.30;99.90;;;;;;4975556;28;20026;-69
2023/01/13 12:50:24;;;;;;;128.90;67.13;;;30.20;99.90;;;;;;4975398;28;20034;-68
2023/01/13 12:52:54;;;;;;;57.25;37.67;;;30.20;99.90;;;;;;4917906;29;20545;-67
2023/01/13 12:55:33;;;;;;;37.13;26.60;;;30.20;99.90;;;;;;4917854;29;20048;-68
2023/01/13 12:58:13;;;;;;;34.33;24.08;;;30.10;99.90;;;;;;4917966;29;20092;-68
2023/01/13 13:00:40;;;;;;;28.13;20.92;;;30.10;99.90;;;;;;4935827;29;20035;-68
2023/01/13 13:03:08;;;;;;;27.42;20.30;;;30.00;99.90;;;;;;4956265;29;20023;-69
2023/01/13 13:05:46;;;;;;;28.15;19.92;;;30.00;99.90;;;;;;4956320;29;20481;-67
2023/01/13 13:08:53;;;;;;;40.72;25.15;;;30.00;99.90;;;;;;4956199;29;20404;-68
2023/01/13 13:14:40;;;;;;;28.63;21.77;;;30.00;99.90;;;;;;4942196;29;20055;-68
2023/01/13 13:17:28;;;;;;;31.65;21.92;;;29.90;99.90;;;;;;4951472;28;20051;-67
2023/01/13 13:19:55;;;;;;;32.75;23.10;;;29.90;99.90;;;;;;4947013;29;20477;-68
2023/01/13 13:22:49;;;;;;;44.85;22.70;;;29.80;99.90;;;;;;4955783;28;20043;-68
2023/01/13 13:25:20;;;;;;;48.40;35.28;;;29.90;99.90;;;;;;4955421;29;20027;-67
2023/01/13 13:28:12;;;;;;;37.83;25.45;;;29.90;99.90;;;;;;4953608;29;20087;-67
2023/01/13 13:30:53;;;;;;;48.63;32.97;;;29.90;99.90;;;;;;5014476;28;20033;-67
2023/01/13 13:33:40;;;;;;;36.10;23.67;;;29.80;99.90;;;;;;5017737;28;20040;-68
2023/01/13 13:36:35;;;;;;;48.83;31.38;;;29.70;99.90;;;;;;4940249;29;20268;-68
2023/01/13 13:47:39;;;;;;;38.15;24.55;;;29.70;99.90;;;;;;4941848;29;20452;-68
2023/01/13 13:50:19;;;;;;;90.93;68.50;;;29.70;99.90;;;;;;4941233;29;20114;-68